createdAt,value
2022-11-10T00:02:11.610Z,5.70
2022-11-10T00:04:57.040Z,8.13
2022-11-10T00:07:42.501Z,4.05
2022-11-10T00:10:27.773Z,9.13
2022-11-10T00:13:13.290Z,8.15
2022-11-10T00:16:18.772Z,8.43
2022-11-10T00:19:04.150Z,4.10
2022-11-10T00:21:49.573Z,5.50
2022-11-10T00:24:34.948Z,7.53
2022-11-10T00:27:20.454Z,7.43
2022-11-10T00:30:06.515Z,8.38
2022-11-10T00:32:51.492Z,6.20
2022-11-10T00:35:36.885Z,6.28
2022-11-10T00:38:22.178Z,5.65
2022-11-10T00:41:07.591Z,5.22
2022-11-10T00:43:52.887Z,4.53
2022-11-10T00:46:38.352Z,6.60
2022-11-10T00:49:23.922Z,6.32
2022-11-10T00:52:09.209Z,6.70
2022-11-10T00:54:54.478Z,3.35
2022-11-10T00:57:39.795Z,5.30
2022-11-10T01:00:25.286Z,12.90
2022-11-10T01:03:18.555Z,7.82
2022-11-10T01:06:09.826Z,5.10
2022-11-10T01:08:55.079Z,6.82
2022-11-10T01:11:40.498Z,5.82
2022-11-10T01:14:25.913Z,6.72
2022-11-10T01:17:11.199Z,4.70
2022-11-10T01:19:56.606Z,5.53
2022-11-10T01:22:42.125Z,6.28
2022-11-10T01:25:27.516Z,6.30
2022-11-10T01:28:12.856Z,10.90
2022-11-10T01:30:59.992Z,7.75
2022-11-10T01:33:45.354Z,7.72
2022-11-10T01:36:30.460Z,6.75
2022-11-10T01:39:15.918Z,8.82
2022-11-10T01:42:01.434Z,5.43
2022-11-10T01:45:24.795Z,5.28
2022-11-10T01:48:15.701Z,5.00
2022-11-10T01:51:23.015Z,7.57
2022-11-10T01:54:15.610Z,8.82
2022-11-10T01:57:05.203Z,7.50
2022-11-10T01:59:50.641Z,5.75
2022-11-10T02:02:41.724Z,7.15
2022-11-10T02:05:27.020Z,4.43
2022-11-10T02:08:15.743Z,5.28
2022-11-10T02:11:00.956Z,4.82
2022-11-10T02:13:46.375Z,7.50
2022-11-10T02:16:32.026Z,6.70
2022-11-10T02:19:22.926Z,3.58
2022-11-10T02:22:08.382Z,6.85
2022-11-10T02:24:53.629Z,4.57
2022-11-10T02:27:39.177Z,6.22
2022-11-10T02:30:27.645Z,4.22
2022-11-10T02:33:13.039Z,4.70
2022-11-10T02:35:58.529Z,7.75
2022-11-10T02:38:43.944Z,6.53
2022-11-10T02:41:29.360Z,4.43
2022-11-10T02:44:14.842Z,6.15
2022-11-10T02:47:00.063Z,4.60
2022-11-10T02:49:45.629Z,8.32
2022-11-10T02:52:30.962Z,8.45
2022-11-10T02:55:16.504Z,4.40
2022-11-10T02:58:01.865Z,7.82
2022-11-10T03:00:47.191Z,5.75
2022-11-10T03:03:33.296Z,6.05
2022-11-10T03:06:18.751Z,8.88
2022-11-10T03:09:04.160Z,6.70
2022-11-10T03:11:49.391Z,4.93
2022-11-10T03:14:34.831Z,5.40
2022-11-10T03:17:20.315Z,7.43
2022-11-10T03:20:06.072Z,2.17
2022-11-10T03:22:51.143Z,4.63
2022-11-10T03:25:37.310Z,4.97
2022-11-10T03:28:22.278Z,4.95
2022-11-10T03:31:07.721Z,3.95
2022-11-10T03:33:53.020Z,4.40
2022-11-10T03:36:38.412Z,6.53
2022-11-10T03:39:24.330Z,6.40
2022-11-10T03:42:09.698Z,5.45
2022-11-10T03:44:55.228Z,5.95
2022-11-10T03:47:40.577Z,5.80
2022-11-10T03:50:25.919Z,5.82
2022-11-10T03:53:11.156Z,7.63
2022-11-10T03:55:59.648Z,6.10
2022-11-10T03:58:45.076Z,6.45
2022-11-10T04:01:30.489Z,5.43
2022-11-10T04:04:34.358Z,4.95
2022-11-10T04:07:38.226Z,4.28
2022-11-10T04:10:23.717Z,5.65
2022-11-10T04:13:27.527Z,4.47
2022-11-10T04:16:13.137Z,7.25
2022-11-10T04:18:58.202Z,6.78
2022-11-10T04:21:43.733Z,5.20
2022-11-10T04:24:29.249Z,6.05
2022-11-10T04:27:14.532Z,5.30
2022-11-10T04:29:59.979Z,4.22
2022-11-10T04:32:45.388Z,8.02
2022-11-10T04:35:30.715Z,5.28
2022-11-10T04:38:16.009Z,5.43
2022-11-10T04:41:01.764Z,4.00
2022-11-10T04:43:47.029Z,4.57
2022-11-10T04:46:36.418Z,7.70
2022-11-10T04:49:21.773Z,6.78
2022-11-10T04:52:07.194Z,6.55
2022-11-10T04:54:52.428Z,5.93
2022-11-10T04:57:37.898Z,4.07
2022-11-10T05:00:23.328Z,3.80
2022-11-10T05:03:11.528Z,4.80
2022-11-10T05:05:56.990Z,6.95
2022-11-10T05:08:43.396Z,8.75
2022-11-10T05:11:28.474Z,7.05
2022-11-10T05:14:13.984Z,6.53
2022-11-10T05:16:59.265Z,7.68
2022-11-10T05:19:44.671Z,5.40
2022-11-10T05:22:30.082Z,7.00
2022-11-10T05:25:15.588Z,7.55
2022-11-10T05:28:01.446Z,9.30
2022-11-10T05:30:46.501Z,7.43
2022-11-10T05:33:33.491Z,7.88
2022-11-10T05:36:18.630Z,6.72
2022-11-10T05:39:03.995Z,7.22
2022-11-10T05:41:49.490Z,8.07
2022-11-10T05:44:34.860Z,7.18
2022-11-10T05:47:20.331Z,8.88
2022-11-10T05:50:07.534Z,6.75
2022-11-10T05:52:54.863Z,8.25
2022-11-10T05:55:40.377Z,9.05
2022-11-10T05:58:26.006Z,5.28
2022-11-10T06:01:11.181Z,8.13
2022-11-10T06:03:56.596Z,7.97
2022-11-10T06:06:41.922Z,8.13
2022-11-10T06:09:27.438Z,11.05
2022-11-10T06:12:12.840Z,5.80
2022-11-10T06:14:58.398Z,5.32
2022-11-10T06:17:44.008Z,4.97
2022-11-10T06:20:29.664Z,5.63
2022-11-10T06:23:15.090Z,6.30
2022-11-10T06:26:00.321Z,6.70
2022-11-10T06:28:45.728Z,11.60
2022-11-10T06:31:31.073Z,6.93
2022-11-10T06:34:16.584Z,8.57
2022-11-10T06:37:02.192Z,8.73
2022-11-10T06:39:47.494Z,5.82
2022-11-10T06:42:33.012Z,6.38
2022-11-10T06:45:18.097Z,7.85
2022-11-10T06:48:11.157Z,5.80
2022-11-10T06:51:00.623Z,6.22
2022-11-10T06:53:46.084Z,9.23
2022-11-10T06:56:31.504Z,8.88
2022-11-10T06:59:16.948Z,10.57
2022-11-10T07:02:02.550Z,17.83
2022-11-10T07:04:50.606Z,14.57
2022-11-10T07:07:35.914Z,13.85
2022-11-10T07:10:21.377Z,9.30
2022-11-10T07:13:06.864Z,11.88
2022-11-10T07:15:52.400Z,7.90
2022-11-10T07:18:38.010Z,9.50
2022-11-10T07:21:23.685Z,13.10
2022-11-10T07:24:09.249Z,10.57
2022-11-10T07:26:54.599Z,8.65
2022-11-10T07:29:40.091Z,10.15
2022-11-10T07:32:25.620Z,8.13
2022-11-10T07:35:10.959Z,11.32
2022-11-10T07:38:03.423Z,10.05
2022-11-10T07:40:53.612Z,12.60
2022-11-10T07:43:39.045Z,12.98
2022-11-10T07:46:24.718Z,13.20
2022-11-10T07:49:09.976Z,11.30
2022-11-10T07:51:55.593Z,14.00
2022-11-10T07:54:41.340Z,11.98
2022-11-10T07:57:26.467Z,13.40
2022-11-10T08:00:15.162Z,10.73
2022-11-10T08:03:16.015Z,13.23
2022-11-10T08:06:01.016Z,9.38
2022-11-10T08:08:47.491Z,12.60
2022-11-10T08:11:32.567Z,8.48
2022-11-10T08:14:17.820Z,11.40
2022-11-10T08:17:03.245Z,14.48
2022-11-10T08:19:48.584Z,11.30
2022-11-10T08:22:33.777Z,13.93
2022-11-10T08:25:19.087Z,14.52
2022-11-10T08:28:13.196Z,9.05
2022-11-10T08:31:02.825Z,14.80
2022-11-10T08:33:50.895Z,14.38
2022-11-10T08:36:38.037Z,16.27
2022-11-10T08:39:38.252Z,14.48
2022-11-10T08:42:24.589Z,12.45
2022-11-10T08:45:10.343Z,16.65
2022-11-10T08:47:59.961Z,19.77
2022-11-10T08:50:45.811Z,14.98
2022-11-10T08:53:31.249Z,15.55
2022-11-10T08:56:16.507Z,22.20
2022-11-10T08:59:01.897Z,12.05
2022-11-10T09:01:47.273Z,9.70
2022-11-10T09:04:32.827Z,9.05
2022-11-10T09:07:18.202Z,8.95
2022-11-10T09:10:07.824Z,10.85
2022-11-10T09:12:53.725Z,11.82
2022-11-10T09:15:39.894Z,11.27
2022-11-10T09:18:24.969Z,11.15
2022-11-10T09:21:11.910Z,9.70
2022-11-10T09:23:57.232Z,13.57
2022-11-10T09:26:45.285Z,13.75
2022-11-10T09:29:30.627Z,9.15
2022-11-10T09:32:16.005Z,6.60
2022-11-10T09:35:01.958Z,9.60
2022-11-10T09:37:47.418Z,9.27
2022-11-10T09:40:48.169Z,12.80
2022-11-10T09:44:05.055Z,12.82
2022-11-10T09:47:12.447Z,8.55
2022-11-10T09:50:03.452Z,9.48
2022-11-10T09:52:50.033Z,7.00
2022-11-10T09:55:46.045Z,12.57
2022-11-10T09:58:40.090Z,6.25
2022-11-10T10:01:38.512Z,11.25
2022-11-10T10:04:52.225Z,6.53
2022-11-10T10:07:52.628Z,9.32
2022-11-10T10:10:45.643Z,7.82
2022-11-10T10:13:52.394Z,9.15
2022-11-10T10:16:48.798Z,7.07
2022-11-10T10:19:41.938Z,7.65
2022-11-10T10:22:30.141Z,13.02
2022-11-10T10:25:22.382Z,6.60
2022-11-10T10:28:43.035Z,13.52
2022-11-10T10:31:39.210Z,8.02
2022-11-10T10:34:28.025Z,8.80
2022-11-10T10:37:36.585Z,12.27
2022-11-10T10:40:24.695Z,9.00
2022-11-10T10:43:10.209Z,7.88
2022-11-10T10:46:15.755Z,6.40
2022-11-10T10:49:29.472Z,9.50
2022-11-10T10:52:17.262Z,10.43
2022-11-10T10:55:08.145Z,10.23
2022-11-10T10:58:00.362Z,7.05
2022-11-10T11:00:47.995Z,10.40
2022-11-10T11:03:48.293Z,9.68
2022-11-10T11:06:35.300Z,10.10
2022-11-10T11:09:29.810Z,8.63
2022-11-10T11:12:18.173Z,10.32
2022-11-10T11:15:29.545Z,10.32
2022-11-10T11:18:17.414Z,10.25
2022-11-10T11:21:21.292Z,9.13
2022-11-10T11:24:29.258Z,11.63
2022-11-10T11:27:28.380Z,9.18
2022-11-10T11:30:17.891Z,9.68
2022-11-10T11:33:32.516Z,14.15
2022-11-10T11:36:36.126Z,9.32
2022-11-10T11:39:50.904Z,14.98
2022-11-10T11:42:55.615Z,19.58
2022-11-10T11:45:49.762Z,13.93
2022-11-10T11:48:59.752Z,16.83
2022-11-10T11:51:56.421Z,10.20
2022-11-10T11:55:07.495Z,12.02
2022-11-10T11:58:23.964Z,10.23
2022-11-10T12:01:46.290Z,13.20
2022-11-10T12:04:40.656Z,11.27
2022-11-10T12:07:46.915Z,7.72
2022-11-10T12:10:47.665Z,13.63
2022-11-10T12:13:37.360Z,8.52
2022-11-10T12:16:47.231Z,6.93
2022-11-10T12:19:57.488Z,12.30
2022-11-10T12:23:01.552Z,8.60
2022-11-10T12:26:00.626Z,11.00
2022-11-10T12:28:51.596Z,9.43
2022-11-10T12:31:38.714Z,9.25
2022-11-10T12:34:26.673Z,9.23
2022-11-10T12:37:28.027Z,10.13
2022-11-10T12:40:17.764Z,14.70
2022-11-10T12:43:07.338Z,7.63
2022-11-10T12:45:57.777Z,7.07
2022-11-10T12:48:52.032Z,9.38
2022-11-10T12:51:55.980Z,10.80
2022-11-10T12:54:42.814Z,9.93
2022-11-10T12:57:30.057Z,13.25
2022-11-10T13:00:28.095Z,17.45
2022-11-10T13:03:24.063Z,12.30
2022-11-10T13:06:27.258Z,13.73
2022-11-10T13:09:24.366Z,14.32
2022-11-10T13:12:22.885Z,10.38
2022-11-10T13:15:39.236Z,10.40
2022-11-10T13:18:44.345Z,8.23
2022-11-10T13:21:51.487Z,11.20
2022-11-10T13:24:37.764Z,9.77
2022-11-10T13:27:38.254Z,12.95
2022-11-10T13:30:43.448Z,11.27
2022-11-10T13:33:37.402Z,14.02
2022-11-10T13:36:40.908Z,9.30
2022-11-10T13:39:29.422Z,18.48
2022-11-10T13:42:24.414Z,11.45
2022-11-10T13:45:32.938Z,13.13
2022-11-10T13:48:18.388Z,9.73
2022-11-10T13:51:25.224Z,10.38
2022-11-10T13:54:10.387Z,8.57
2022-11-10T13:57:31.281Z,10.02
2022-11-10T14:00:17.112Z,9.68
2022-11-10T14:03:04.752Z,8.88
2022-11-10T14:06:04.966Z,5.15
2022-11-10T14:08:53.234Z,7.75
2022-11-10T14:11:47.134Z,10.93
2022-11-10T14:14:49.127Z,11.57
2022-11-10T14:17:39.329Z,10.25
2022-11-10T14:20:42.548Z,11.25
2022-11-10T14:23:51.634Z,7.05
2022-11-10T14:26:54.877Z,9.90
2022-11-10T14:29:41.104Z,8.52
2022-11-10T14:32:26.549Z,8.95
2022-11-10T14:35:24.187Z,11.63
2022-11-10T14:38:43.129Z,7.22
2022-11-10T14:41:28.562Z,8.10
2022-11-10T14:44:22.113Z,8.73
2022-11-10T14:47:14.747Z,9.65
2022-11-10T14:50:13.679Z,9.13
2022-11-10T14:53:23.507Z,7.57
2022-11-10T14:56:20.743Z,8.52
2022-11-10T14:59:10.753Z,5.93
2022-11-10T15:01:59.543Z,7.55
2022-11-10T15:04:46.880Z,7.10
2022-11-10T15:07:32.463Z,9.60
2022-11-10T15:10:25.585Z,10.70
2022-11-10T15:13:13.978Z,10.10
2022-11-10T15:16:25.657Z,8.63
2022-11-10T15:19:46.089Z,10.27
2022-11-10T15:22:35.246Z,9.45
2022-11-10T15:25:23.345Z,8.73
2022-11-10T15:28:27.173Z,10.55
2022-11-10T15:31:21.169Z,11.23
2022-11-10T15:34:06.288Z,11.40
2022-11-10T15:37:09.726Z,9.57
2022-11-10T15:40:32.721Z,14.85
2022-11-10T15:43:24.384Z,11.35
2022-11-10T15:46:18.134Z,20.27
2022-11-10T15:49:03.930Z,12.65
2022-11-10T15:51:52.193Z,11.82
2022-11-10T15:54:38.213Z,12.25
2022-11-10T15:57:23.389Z,13.20
2022-11-10T16:00:12.330Z,10.05
2022-11-10T16:02:58.654Z,15.35
2022-11-10T16:05:44.576Z,17.63
2022-11-10T16:08:32.138Z,16.40
2022-11-10T16:11:19.996Z,10.60
2022-11-10T16:14:05.543Z,8.70
2022-11-10T16:16:50.682Z,9.52
2022-11-10T16:19:36.029Z,9.98
2022-11-10T16:22:21.498Z,8.55
2022-11-10T16:25:07.640Z,11.70
2022-11-10T16:27:52.961Z,10.68
2022-11-10T16:30:38.398Z,13.02
2022-11-10T16:33:24.563Z,14.52
2022-11-10T16:36:27.791Z,9.55
2022-11-10T16:39:15.615Z,11.00
2022-11-10T16:42:00.759Z,7.28
2022-11-10T16:44:45.973Z,7.03
2022-11-10T16:47:32.561Z,8.63
2022-11-10T16:50:32.247Z,9.70
2022-11-10T16:53:21.132Z,11.00
2022-11-10T16:56:12.124Z,8.48
2022-11-10T16:58:57.376Z,9.95
2022-11-10T17:01:45.647Z,9.55
2022-11-10T17:04:30.626Z,8.50
2022-11-10T17:07:26.173Z,10.55
2022-11-10T17:10:16.810Z,6.40
2022-11-10T17:13:01.851Z,8.52
2022-11-10T17:15:47.554Z,9.55
2022-11-10T17:18:34.566Z,8.27
2022-11-10T17:21:21.299Z,7.95
2022-11-10T17:24:07.900Z,6.75
2022-11-10T17:26:53.446Z,16.77
2022-11-10T17:29:38.908Z,13.55
2022-11-10T17:32:43.079Z,6.93
2022-11-10T17:35:29.231Z,16.08
2022-11-10T17:38:25.467Z,15.90
2022-11-10T17:41:19.097Z,15.82
2022-11-10T17:44:04.542Z,12.57
2022-11-10T17:46:49.837Z,15.55
2022-11-10T17:49:35.300Z,13.27
2022-11-10T17:52:20.575Z,13.40
2022-11-10T17:55:06.097Z,13.43
2022-11-10T17:57:51.418Z,12.68
2022-11-10T18:00:36.836Z,10.45
2022-11-10T18:03:23.257Z,11.95
2022-11-10T18:06:13.169Z,9.02
2022-11-10T18:08:58.387Z,14.07
2022-11-10T18:11:47.704Z,12.70
2022-11-10T18:14:34.374Z,11.02
2022-11-10T18:17:20.885Z,15.48
2022-11-10T18:20:07.003Z,13.63
2022-11-10T18:22:52.279Z,12.68
2022-11-10T18:25:39.736Z,8.65
2022-11-10T18:28:24.770Z,8.52
2022-11-10T18:31:13.033Z,10.48
2022-11-10T18:33:58.288Z,9.60
2022-11-10T18:36:43.826Z,14.68
2022-11-10T18:39:29.582Z,15.02
2022-11-10T18:42:14.855Z,14.85
2022-11-10T18:45:00.296Z,15.93
2022-11-10T18:47:45.617Z,11.88
2022-11-10T18:50:31.201Z,11.00
2022-11-10T18:53:16.535Z,10.98
2022-11-10T18:56:01.874Z,10.35
2022-11-10T18:58:56.178Z,7.80
2022-11-10T19:01:41.995Z,9.00
2022-11-10T19:04:27.515Z,12.90
2022-11-10T19:07:12.965Z,7.38
2022-11-10T19:09:58.316Z,12.85
2022-11-10T19:12:43.941Z,7.78
2022-11-10T19:15:29.278Z,5.68
2022-11-10T19:18:15.449Z,5.80
2022-11-10T19:21:08.904Z,10.18
2022-11-10T19:23:58.055Z,8.65
2022-11-10T19:26:43.159Z,7.32
2022-11-10T19:29:28.627Z,7.03
2022-11-10T19:32:14.110Z,12.15
2022-11-10T19:34:59.299Z,8.15
2022-11-10T19:37:44.749Z,8.32
2022-11-10T19:40:30.110Z,17.13
2022-11-10T19:43:15.520Z,18.15
2022-11-10T19:46:05.541Z,16.90
2022-11-10T19:48:51.458Z,19.02
2022-11-10T19:51:36.968Z,38.80
2022-11-10T19:54:22.324Z,45.78
2022-11-10T19:57:07.681Z,27.27
2022-11-10T19:59:53.238Z,21.58
2022-11-10T20:02:44.239Z,21.15
2022-11-10T20:05:30.896Z,17.33
2022-11-10T20:08:16.513Z,19.65
2022-11-10T20:11:06.277Z,16.52
2022-11-10T20:13:55.136Z,20.20
2022-11-10T20:16:40.773Z,23.98
2022-11-10T20:19:26.114Z,21.70
2022-11-10T20:22:12.700Z,13.43
2022-11-10T20:24:57.981Z,20.48
2022-11-10T20:27:43.423Z,25.75
2022-11-10T20:30:29.016Z,20.92
2022-11-10T20:33:14.113Z,20.05
2022-11-10T20:36:17.431Z,16.73
2022-11-10T20:39:05.360Z,18.33
2022-11-10T20:41:52.488Z,16.60
2022-11-10T20:44:37.936Z,15.13
2022-11-10T20:47:23.696Z,14.75
2022-11-10T20:50:14.769Z,12.70
2022-11-10T20:55:54.429Z,18.70
2022-11-10T20:58:40.884Z,14.73
2022-11-10T21:01:26.350Z,14.55
2022-11-10T21:04:12.102Z,14.55
2022-11-10T21:06:57.571Z,14.05
2022-11-10T21:09:42.925Z,13.75
2022-11-10T21:12:46.790Z,21.77
2022-11-10T21:15:32.168Z,13.40
2022-11-10T21:18:18.317Z,11.50
2022-11-10T21:21:04.916Z,12.10
2022-11-10T21:23:57.285Z,14.02
2022-11-10T21:26:42.686Z,11.75
2022-11-10T21:29:28.124Z,9.82
2022-11-10T21:32:13.333Z,12.70
2022-11-10T21:34:58.810Z,13.23
2022-11-10T21:37:44.188Z,15.52
2022-11-10T21:40:29.478Z,8.82
2022-11-10T21:43:14.867Z,12.40
2022-11-10T21:46:04.018Z,11.35
2022-11-10T21:48:52.588Z,7.82
2022-11-10T21:51:37.664Z,11.18
2022-11-10T21:54:22.981Z,10.55
2022-11-10T21:57:08.340Z,8.57
2022-11-10T21:59:53.881Z,7.15
2022-11-10T22:02:39.239Z,7.88
2022-11-10T22:05:24.830Z,7.45
2022-11-10T22:08:09.949Z,7.15
2022-11-10T22:11:13.825Z,13.60
2022-11-10T22:14:34.464Z,10.52
2022-11-10T22:17:38.175Z,14.13
2022-11-10T22:20:23.477Z,9.40
2022-11-10T22:23:08.764Z,8.13
2022-11-10T22:25:54.049Z,8.43
2022-11-10T22:28:39.769Z,10.07
2022-11-10T22:31:24.982Z,15.63
2022-11-10T22:34:10.537Z,12.30
2022-11-10T22:36:56.268Z,10.43
2022-11-10T22:39:59.712Z,12.80
2022-11-10T22:43:04.364Z,9.60
2022-11-10T22:45:49.791Z,10.88
2022-11-10T22:48:35.248Z,12.40
2022-11-10T22:51:20.851Z,12.50
2022-11-10T22:54:10.253Z,9.77
2022-11-10T22:56:55.728Z,12.73
2022-11-10T22:59:41.117Z,9.10
2022-11-10T23:02:27.510Z,7.60
2022-11-10T23:05:12.622Z,12.55
2022-11-10T23:07:58.050Z,8.55
2022-11-10T23:10:43.474Z,8.77
2022-11-10T23:13:28.877Z,11.52
2022-11-10T23:16:23.120Z,8.98
2022-11-10T23:19:10.944Z,11.38
2022-11-10T23:21:56.452Z,7.32
2022-11-10T23:24:41.347Z,10.32
2022-11-10T23:27:26.817Z,9.27
2022-11-10T23:30:12.325Z,7.82
2022-11-10T23:32:57.736Z,11.88
2022-11-10T23:35:43.048Z,7.72
2022-11-10T23:38:33.706Z,10.30
2022-11-10T23:41:23.330Z,7.82
2022-11-10T23:44:08.612Z,8.50
2022-11-10T23:46:54.028Z,8.90
2022-11-10T23:49:39.476Z,6.85
2022-11-10T23:52:24.840Z,7.93
2022-11-10T23:55:10.260Z,12.98
2022-11-10T23:57:55.593Z,12.27
